Incline Creek, Nevada Weather observations

Data are for observation ending at time listed.
 Day   Time    Ave.   Ave.  Ave.  Vector   Max.   Stn.    Total    Solar   Ave.   Snow 
  of    of     Air    Rel.  Wind   Wind    Wind   Baro.  Precip.   Rad.    Soil   Depth
Year   Day     Temp.  Hum.  Speed  Dir.    Gust   Pres.                    Temp.       
2014   (PST)    F      %     mph   deg.    mph     mb.     in.     W/m2     F      in. 
---------------------------------------------------------------------------------------  
 294    4:10   28.6    88    2.1   326      3.4   999.0    0.00       0    999.0    0.0
 294    4:20   28.5    88    1.3   336      3.4   999.0    0.00       0    999.0    0.0
 294    4:30   28.3    88    2.1     4      3.9   999.0    0.00       0    999.0    0.0
 294    4:40   28.0    90    2.4    18      3.4   999.0    0.00       0    999.0    0.0
 294    4:50   27.9    89    2.4     7      4.1   999.0    0.00       0    999.0    0.0
 294    5:00   27.8    91    2.1    23      2.7   999.0    0.00       0    999.0    0.0
 294    5:10   27.7    90    2.5    19      3.1   999.0    0.00       0    999.0    0.0
 294    5:20   27.6    87    1.8     8      3.1   999.0    0.00       0    999.0    0.0
 294    5:30   27.7    87    2.1    22      3.0   999.0    0.00       0    999.0    0.0
 294    5:40   27.5    88    1.9    19      3.1   999.0    0.00       0    999.0    0.0
 294    5:50   27.3    87    1.2    11      2.5   999.0    0.00       0    999.0    0.0
 294    6:00   27.3    87    1.7    19      2.6   999.0    0.00       2    999.0    0.0
 294    6:10   27.4    86    1.9    22      3.0   999.0    0.00       4    999.0    0.0
 294    6:20   27.3    87    2.1    20      3.0   999.0    0.00       7    999.0    0.0
 294    6:30   27.4    86    1.7    20      2.6   999.0    0.00      12    999.0    0.0
 294    6:40   27.5    86    1.5    22      2.6   999.0    0.00      23    999.0    0.0
 294    6:50   27.8    85    1.9    16      4.0   999.0    0.00      31    999.0    0.0
 294    7:00   28.0    83    2.5    23      4.3   999.0    0.00      23    999.0    0.0
 294    7:10   28.0    84    1.8    22      3.9   999.0    0.00      29    999.0    0.0
 294    7:20   28.2    84    1.7    27      3.3   999.0    0.00      63    999.0    0.0
 294    7:30   29.2    80    1.7    29      3.8   999.0    0.00     216    999.0    0.0
 294    7:40   30.2    78    1.7    22      2.9   999.0    0.00     177    999.0    0.0
 294    7:50   31.7    75    1.2    22      2.6   999.0    0.00     231    999.0    0.0
 294    8:00   33.3    73    1.6    19      2.6   999.0    0.00     243    999.0    0.0
 294    8:10   34.7    69    1.3    23      2.6   999.0    0.00     212    999.0    0.0
 294    8:20   36.6    66    1.1    30      2.1   999.0    0.00     217    999.0    0.0
 294    8:30   38.2    59    0.9    50      2.0   999.0    0.00     280    999.0    0.0
 294    8:40   40.1    50    0.9    71      2.4   999.0    0.00     290    999.0    0.0
 294    8:50   41.7    44    1.8   128      3.8   999.0    0.00     363    999.0    0.0
 294    9:00   42.1    43    0.9   136      2.3   999.0    0.00     315    999.0    0.0
 294    9:10   43.8    40    1.8   119      4.5   999.0    0.00     548    999.0    0.0
 294    9:20   43.7    36    4.0   129      7.1   999.0    0.00     518    999.0    0.0
 294    9:30   43.9    34    3.5   139      5.5   999.0    0.00     549    999.0    0.0
 294    9:40   44.9    35    2.5   138      5.9   999.0    0.00     583    999.0    0.0
 294    9:50   45.4    34    3.8   152      8.9   999.0    0.00     600    999.0    0.0
 294   10:00   45.5    34    3.6   142      8.7   999.0    0.00     616    999.0    0.0
 294   10:10   45.8    32    4.1   142      7.5   999.0    0.00     631    999.0    0.0
 294   10:20   46.1    32    4.5   140      8.7   999.0    0.00     644    999.0    0.0
 294   10:30   46.4    31    4.0   142      8.2   999.0    0.00     655    999.0    0.0
 294   10:40   46.6    31    4.2   156     10.6   999.0    0.00     659    999.0    0.0
 294   10:50   47.0    30    4.3   157      9.1   999.0    0.00     669    999.0    0.0
 294   11:00   47.0    28    5.4   154      9.6   999.0    0.00     681    999.0    0.0
 294   11:10   47.2    28    5.0   151     10.8   999.0    0.00     687    999.0    0.0
 294   11:20   47.9    27    3.5   151      9.4   999.0    0.00     692    999.0    0.0
 294   11:30   48.1    26    4.8   150     10.9   999.0    0.00     676    999.0    0.0
 294   11:40   47.8    26    4.6   158     11.2   999.0    0.00     663    999.0    0.0
 294   11:50   48.0    26    4.8   162      9.4   999.0    0.00     676    999.0    0.0
 294   12:00   48.2    26    4.6   166     11.3   999.0    0.00     674    999.0    0.0
 294   12:10   47.8    27    5.5   151     10.7   999.0    0.00     617    999.0    0.0
 294   12:20   48.1    26    5.1   147     11.4   999.0    0.00     652    999.0    0.0
 294   12:30   48.7    25    4.4   147     10.2   999.0    0.00     663    999.0    0.0
 294   12:40   49.4    25    5.7   151     11.4   999.0    0.00     634    999.0    0.0
 294   12:50   49.1    29    6.6   157     10.9   999.0    0.00     637    999.0    0.0
 294   13:00   49.4    30    5.0   151     10.9   999.0    0.00     648    999.0    0.0
 294   13:10   49.3    29    7.2   153     12.5   999.0    0.00     597    999.0    0.0
 294   13:20   49.9    29    4.4   141     10.6   999.0    0.00     582    999.0    0.0
 294   13:30   50.6    30    3.4   131      9.2   999.0    0.00     580    999.0    0.0
 294   13:40   51.0    30    5.8   150     12.6   999.0    0.00     573    999.0    0.0
 294   13:50   50.2    31    5.8   144     12.1   999.0    0.00     550    999.0    0.0
 294   14:00   50.2    32    5.0   156     10.9   999.0    0.00     423    999.0    0.0
 294   14:10   50.8    30    3.7   149      9.6   999.0    0.00     440    999.0    0.0
 294   14:20   50.2    32    4.7   135      9.4   999.0    0.00     364    999.0    0.0
 294   14:30   49.9    32    4.6   146      9.7   999.0    0.00     219    999.0    0.0
 294   14:40   49.5    34    4.4   142      8.1   999.0    0.00     217    999.0    0.0
 294   14:50   49.7    35    4.1   140      9.4   999.0    0.00     364    999.0    0.0
 294   15:00   50.4    36    5.3   148     10.5   999.0    0.00     258    999.0    0.0
 294   15:10   49.4    40    4.3   138      7.6   999.0    0.00     137    999.0    0.0
 294   15:20   49.4    40    3.8   134      7.9   999.0    0.00     112    999.0    0.0
 294   15:30   49.5    40    3.5   124      7.6   999.0    0.00      62    999.0    0.0
 294   15:40   49.4    42    4.3   130      9.6   999.0    0.00      72    999.0    0.0
 294   15:50   49.2    44    3.8   125      9.6   999.0    0.00      85    999.0    0.0
 294   16:00   48.9    45    3.2   108      7.8   999.0    0.00      47    999.0    0.0
 294   16:10   48.6    46    3.4   122      7.5   999.0    0.00      38    999.0    0.0
 294   16:20   48.4    46    3.0   118      7.0   999.0    0.00      37    999.0    0.0
 294   16:30   48.3    47    3.3   115      5.6   999.0    0.00      36    999.0    0.0
 294   16:40   48.1    47    2.8   105      6.0   999.0    0.00      22    999.0    0.0
 294   16:50   47.7    48    2.1   110      4.6   999.0    0.00      14    999.0    0.0
 294   17:00   46.9    51    1.1   314      2.8   999.0    0.00       6    999.0    0.0
 294   17:10   45.0    56    2.1   302      3.2   999.0    0.00       3    999.0    0.0
 294   17:20   43.7    58    1.4   354      3.1   999.0    0.00       0    999.0    0.0
 294   17:30   42.6    60    1.5    14      2.4   999.0    0.00       0    999.0    0.0
 294   17:40   41.3    63    2.4    27      3.4   999.0    0.00       0    999.0    0.0
 294   17:50   40.6    64    1.5    25      2.9   999.0    0.00       0    999.0    0.0
 294   18:00   39.8    65    2.0    28      3.6   999.0    0.00       0    999.0    0.0
 294   18:10   39.3    66    1.5    28      2.9   999.0    0.00       0    999.0    0.0
 294   18:20   38.6    67    1.6    26      2.8   999.0    0.00       0    999.0    0.0
 294   18:30   38.2    68    2.4    16      3.3   999.0    0.00       0    999.0    0.0
 294   18:40   37.9    68    1.2    31      2.6   999.0    0.00       0    999.0    0.0
 294   18:50   37.5    69    2.3    21      3.5   999.0    0.00       0    999.0    0.0
 294   19:00   37.2    69    2.1    26      3.5   999.0    0.00       0    999.0    0.0
 294   19:10   36.8    70    2.2    20      3.2   999.0    0.00       0    999.0    0.0
 294   19:20   36.6    70    2.4    16      3.3   999.0    0.00       0    999.0    0.0
 294   19:30   36.4    70    2.3    14      3.6   999.0    0.00       0    999.0    0.0
 294   19:40   36.0    70    2.2    16      3.6   999.0    0.00       0    999.0    0.0
 294   19:50   35.6    70    2.0    24      2.9   999.0    0.00       0    999.0    0.0
 294   20:00   35.3    70    2.1    14      3.3   999.0    0.00       0    999.0    0.0
 294   20:10   35.3    70    2.0    18      3.2   999.0    0.00       0    999.0    0.0
 294   20:20   35.0    70    1.7    27      2.4   999.0    0.00       0    999.0    0.0
 294   20:30   34.7    70    1.8    18      2.9   999.0    0.00       0    999.0    0.0
 294   20:40   34.5    70    2.1    18      2.9   999.0    0.00       0    999.0    0.0
 294   20:50   34.2    70    2.2    21      3.2   999.0    0.00       0    999.0    0.0
 294   21:00   34.0    70    2.0    27      2.9   999.0    0.00       0    999.0    0.0
 294   21:10   33.7    70    0.8    38      2.4   999.0    0.00       0    999.0    0.0
 294   21:20   33.5    72    1.2    23      1.9   999.0    0.00       0    999.0    0.0
 294   21:30   33.5    72    1.7    25      3.1   999.0    0.00       0    999.0    0.0
 294   21:40   33.8    71    1.9    21      3.1   999.0    0.00       0    999.0    0.0
 294   21:50   33.7    71    1.5    34      2.1   999.0    0.00       0    999.0    0.0
 294   22:00   33.6    69    1.5    34      2.3   999.0    0.00       0    999.0    0.0
 294   22:10   33.4    68    1.7    27      2.5   999.0    0.00       0    999.0    0.0
 294   22:20   33.4    68    1.7    26      2.8   999.0    0.00       0    999.0    0.0
 294   22:30   33.4    67    1.5    33      2.6   999.0    0.00       0    999.0    0.0
 294   22:40   33.2    67    1.7    22      3.9   999.0    0.00       0    999.0    0.0
 294   22:50   33.3    68    1.7    28      3.6   999.0    0.00       0    999.0    0.0
 294   23:00   32.9    70    1.7    29      2.6   999.0    0.00       0    999.0    0.0
 294   23:10   32.8    71    1.6    30      2.1   999.0    0.00       0    999.0    0.0
 294   23:20   32.7    73    1.5    30      2.6   999.0    0.00       0    999.0    0.0
 294   23:30   32.5    75    1.1    28      1.7   999.0    0.00       0    999.0    0.0
 294   23:40   32.4    77    1.5    32      2.2   999.0    0.00       0    999.0    0.0
 294   23:50   32.3    78    1.4    34      2.0   999.0    0.00       0    999.0    0.0
 295    0:00   32.2    80    1.9    28      2.8   999.0    0.00       0    999.0    0.0
 295    0:10   32.1    80    1.7    32      2.4   999.0    0.00       0    999.0    0.0
 295    0:20   32.1    81    1.2    29      1.9   999.0    0.00       0    999.0    0.0
 295    0:30   32.1    82    1.9    32      3.2   999.0    0.00       0    999.0    0.0
 295    0:40   31.9    82    1.7    32      2.2   999.0    0.00       0    999.0    0.0
 295    0:50   31.8    83    1.5    35      2.1   999.0    0.00       0    999.0    0.0
 295    1:00   31.7    83    1.7    32      2.4   999.0    0.00       0    999.0    0.0
 295    1:10   31.7    82    1.7    33      2.8   999.0    0.00       0    999.0    0.0
 295    1:20   31.5    81    1.7    35      2.2   999.0    0.00       0    999.0    0.0
 295    1:30   31.5    80    1.4    29      1.9   999.0    0.00       0    999.0    0.0
 295    1:40   31.6    80    1.6    30      2.2   999.0    0.00       0    999.0    0.0
 295    1:50   31.6    79    1.0    30      2.1   999.0    0.00       0    999.0    0.0
 295    2:00   31.9    78    1.6    29      2.3   999.0    0.00       0    999.0    0.0
 295    2:10   32.1    76    1.6    32      2.7   999.0    0.00       0    999.0    0.0
 295    2:20   32.1    76    1.5    29      2.0   999.0    0.00       0    999.0    0.0
 295    2:30   32.0    75    1.5    31      2.3   999.0    0.00       0    999.0    0.0
 295    2:40   32.1    75    1.5    34      2.2   999.0    0.00       0    999.0    0.0
 295    2:50   32.0    75    1.3    29      1.8   999.0    0.00       0    999.0    0.0
 295    3:00   32.0    75    1.4    29      1.8   999.0    0.00       0    999.0    0.0
 295    3:10   32.2    75    1.6    24      2.6   999.0    0.00       0    999.0    0.0
 295    3:20   32.5    74    1.6    19      2.7   999.0    0.00       0    999.0    0.0
 295    3:30   32.7    73    1.6    29      2.3   999.0    0.00       0    999.0    0.0
 295    3:40   32.7    72    1.3    29      1.9   999.0    0.00       0    999.0    0.0
 295    3:50   32.6    72    1.6    31      2.1   999.0    0.00       0    999.0    0.0
 295    4:00   32.4    73    1.5    30      2.2   999.0    0.00       0    999.0    0.0

Return to Incline Creek graphs page.


Western Regional Climate Center,wrcc@dri.edu